createdAt,value
2022-12-27T00:00:57.981Z,92.00
2022-12-27T00:03:04.907Z,92.30
2022-12-27T00:05:12.911Z,92.60
2022-12-27T00:07:21.477Z,92.50
2022-12-27T00:09:28.912Z,92.60
2022-12-27T00:11:35.895Z,92.80
2022-12-27T00:13:43.479Z,92.90
2022-12-27T00:15:50.507Z,92.80
2022-12-27T00:17:57.641Z,92.70
2022-12-27T00:20:10.663Z,92.50
2022-12-27T00:22:18.504Z,92.60
2022-12-27T00:24:27.532Z,93.20
2022-12-27T00:26:36.521Z,93.40
2022-12-27T00:28:43.375Z,93.70
2022-12-27T00:30:57.112Z,94.10
2022-12-27T00:33:03.988Z,94.30
2022-12-27T00:35:11.835Z,94.70
2022-12-27T00:37:18.659Z,94.90
2022-12-27T00:39:27.792Z,95.30
2022-12-27T00:41:34.605Z,95.10
2022-12-27T00:43:41.582Z,95.10
2022-12-27T00:45:48.930Z,95.10
2022-12-27T00:47:56.002Z,94.90
2022-12-27T00:50:02.781Z,94.90
2022-12-27T00:52:09.747Z,94.50
2022-12-27T00:54:16.556Z,94.20
2022-12-27T00:56:31.446Z,93.90
2022-12-27T01:01:10.450Z,93.50
2022-12-27T01:03:17.967Z,93.10
2022-12-27T01:05:25.789Z,92.60
2022-12-27T01:07:32.894Z,92.40
2022-12-27T01:09:39.660Z,92.20
2022-12-27T01:11:48.325Z,91.70
2022-12-27T01:13:55.146Z,91.40
2022-12-27T01:16:02.227Z,91.20
2022-12-27T01:18:09.104Z,90.90
2022-12-27T01:20:16.285Z,90.20
2022-12-27T01:22:23.158Z,89.70
2022-12-27T01:24:30.547Z,88.60
2022-12-27T01:26:37.317Z,87.90
2022-12-27T01:28:47.773Z,87.60
2022-12-27T01:30:54.597Z,87.00
2022-12-27T01:33:01.727Z,86.50
2022-12-27T01:35:08.969Z,86.50
2022-12-27T01:37:16.091Z,85.80
2022-12-27T01:39:22.914Z,85.70
2022-12-27T01:41:52.881Z,85.50
2022-12-27T01:44:01.398Z,85.20
2022-12-27T01:46:08.810Z,84.70
2022-12-27T01:48:20.260Z,84.50
2022-12-27T01:50:32.666Z,84.10
2022-12-27T01:52:40.614Z,84.00
2022-12-27T01:54:47.956Z,83.30
2022-12-27T01:56:56.716Z,83.50
2022-12-27T01:59:08.669Z,82.00
2022-12-27T02:01:19.119Z,81.80
2022-12-27T02:03:30.300Z,80.70
2022-12-27T02:05:42.701Z,79.60
2022-12-27T02:08:03.965Z,80.10
2022-12-27T02:10:11.143Z,80.00
2022-12-27T02:12:19.245Z,80.10
2022-12-27T02:14:31.289Z,80.40
2022-12-27T02:16:38.517Z,80.20
2022-12-27T02:18:45.907Z,79.50
2022-12-27T02:21:15.887Z,79.10
2022-12-27T02:24:07.807Z,78.90
2022-12-27T02:26:35.783Z,78.40
2022-12-27T02:29:23.873Z,77.70
2022-12-27T02:31:37.497Z,76.30
2022-12-27T02:33:51.581Z,75.80
2022-12-27T02:36:06.443Z,76.00
2022-12-27T02:38:16.965Z,75.60
2022-12-27T02:40:42.833Z,75.30
2022-12-27T02:43:07.219Z,75.40
2022-12-27T02:45:39.078Z,74.80
2022-12-27T02:48:05.089Z,72.00
2022-12-27T02:50:30.847Z,71.70
2022-12-27T02:53:03.034Z,72.10
2022-12-27T02:55:27.469Z,71.50
2022-12-27T02:57:42.703Z,70.80
2022-12-27T03:00:29.929Z,70.50
2022-12-27T03:03:06.046Z,69.60
2022-12-27T03:05:24.154Z,69.40
2022-12-27T03:07:37.437Z,69.20
2022-12-27T03:10:15.216Z,69.20
2022-12-27T03:13:00.938Z,68.70
2022-12-27T03:15:33.538Z,68.50
2022-12-27T03:17:47.025Z,68.60
2022-12-27T03:20:14.385Z,68.20
2022-12-27T03:22:40.351Z,68.10
2022-12-27T03:25:03.765Z,68.00
2022-12-27T03:27:19.131Z,67.80
2022-12-27T03:29:43.572Z,67.60
2022-12-27T03:32:11.436Z,67.10
2022-12-27T03:34:36.779Z,66.60
2022-12-27T03:37:01.027Z,67.10
2022-12-27T03:39:15.870Z,66.70
2022-12-27T03:41:46.592Z,66.90
2022-12-27T03:43:53.496Z,66.10
2022-12-27T03:46:22.560Z,65.90
2022-12-27T03:48:36.864Z,65.20
2022-12-27T03:50:50.726Z,64.00
2022-12-27T03:53:01.321Z,62.40
2022-12-27T03:55:09.557Z,61.80
2022-12-27T03:57:19.300Z,61.90
2022-12-27T03:59:26.570Z,62.60
2022-12-27T04:01:33.439Z,62.70
2022-12-27T04:03:40.289Z,62.90
2022-12-27T04:05:48.845Z,62.60
2022-12-27T04:08:12.145Z,62.80
2022-12-27T04:10:35.655Z,62.90
2022-12-27T04:12:59.283Z,63.00
2022-12-27T04:15:22.733Z,62.60
2022-12-27T04:17:46.403Z,62.20
2022-12-27T04:20:09.815Z,61.00
2022-12-27T04:22:35.380Z,60.30
2022-12-27T04:24:58.958Z,60.00
2022-12-27T04:27:22.303Z,59.90
2022-12-27T04:29:45.247Z,59.00
2022-12-27T04:32:09.001Z,58.60
2022-12-27T04:34:32.485Z,59.40
2022-12-27T04:36:39.313Z,59.10
2022-12-27T04:38:47.927Z,57.30
2022-12-27T04:41:11.441Z,57.50
2022-12-27T04:43:34.598Z,58.60
2022-12-27T04:45:58.115Z,59.00
2022-12-27T04:48:30.109Z,59.10
2022-12-27T04:50:52.974Z,58.80
2022-12-27T04:53:16.081Z,57.90
2022-12-27T04:55:26.751Z,56.10
2022-12-27T04:57:33.786Z,56.20
2022-12-27T04:59:56.780Z,56.80
2022-12-27T05:02:06.735Z,57.80
2022-12-27T05:04:13.635Z,57.80
2022-12-27T05:06:21.748Z,57.70
2022-12-27T05:08:45.260Z,57.30
2022-12-27T05:11:13.352Z,56.40
2022-12-27T05:13:37.415Z,56.60
2022-12-27T05:15:44.459Z,55.10
2022-12-27T05:17:51.416Z,55.70
2022-12-27T05:19:58.547Z,55.50
2022-12-27T05:22:21.856Z,54.80
2022-12-27T05:24:45.166Z,55.40
2022-12-27T05:26:53.733Z,55.50
2022-12-27T05:29:02.448Z,55.80
2022-12-27T05:31:09.357Z,56.10
2022-12-27T05:33:16.560Z,55.70
2022-12-27T05:35:23.363Z,55.60
2022-12-27T05:37:30.508Z,54.20
2022-12-27T05:39:37.334Z,55.60
2022-12-27T05:41:44.510Z,55.00
2022-12-27T05:43:53.331Z,55.10
2022-12-27T05:46:05.357Z,54.30
2022-12-27T05:48:12.153Z,55.30
2022-12-27T05:50:19.385Z,56.00
2022-12-27T05:52:29.331Z,55.80
2022-12-27T05:54:36.415Z,52.80
2022-12-27T05:56:43.184Z,52.20
2022-12-27T05:58:55.393Z,53.10
2022-12-27T06:01:02.622Z,52.30
2022-12-27T06:03:09.893Z,52.50
2022-12-27T06:05:16.660Z,52.20
2022-12-27T06:07:24.058Z,52.50
2022-12-27T06:09:30.870Z,51.50
2022-12-27T06:11:37.945Z,52.90
2022-12-27T06:13:45.662Z,53.40
2022-12-27T06:15:54.412Z,53.60
2022-12-27T06:18:04.472Z,53.70
2022-12-27T06:20:12.422Z,53.40
2022-12-27T06:22:19.182Z,52.80
2022-12-27T06:24:26.374Z,52.90
2022-12-27T06:26:34.527Z,52.80
2022-12-27T06:28:41.866Z,52.90
2022-12-27T06:30:49.351Z,52.60
2022-12-27T06:32:58.221Z,52.60
2022-12-27T06:35:04.883Z,52.20
2022-12-27T06:37:11.768Z,52.20
2022-12-27T06:39:18.457Z,51.80
2022-12-27T06:41:25.316Z,51.20
2022-12-27T06:43:31.931Z,51.40
2022-12-27T06:48:00.114Z,51.20
2022-12-27T06:50:07.424Z,50.70
2022-12-27T06:52:14.013Z,51.00
2022-12-27T06:54:20.739Z,50.30
2022-12-27T06:56:27.403Z,50.50
2022-12-27T06:58:33.990Z,50.40
2022-12-27T07:00:40.953Z,50.40
2022-12-27T07:02:48.098Z,50.60
2022-12-27T07:04:56.654Z,49.60
2022-12-27T07:07:03.611Z,49.80
2022-12-27T07:09:10.464Z,49.80
2022-12-27T07:11:18.307Z,50.20
2022-12-27T07:13:24.891Z,51.30
2022-12-27T07:15:31.725Z,51.40
2022-12-27T07:17:40.214Z,52.00
2022-12-27T07:19:48.438Z,51.50
2022-12-27T07:21:56.865Z,51.60
2022-12-27T07:24:03.945Z,52.30
2022-12-27T07:26:12.153Z,51.90
2022-12-27T07:28:18.987Z,51.60
2022-12-27T07:30:26.206Z,51.40
2022-12-27T07:32:33.138Z,51.20
2022-12-27T07:34:39.916Z,50.70
2022-12-27T07:36:47.136Z,50.30
2022-12-27T07:38:56.003Z,49.70
2022-12-27T07:41:03.442Z,49.60
2022-12-27T07:43:10.276Z,49.70
2022-12-27T07:45:17.196Z,49.70
2022-12-27T07:47:24.027Z,47.90
2022-12-27T07:49:31.199Z,48.20
2022-12-27T07:51:39.441Z,48.60
2022-12-27T07:53:46.432Z,48.70
2022-12-27T07:55:54.898Z,49.40
2022-12-27T07:58:02.141Z,49.70
2022-12-27T08:00:09.820Z,49.70
2022-12-27T08:02:19.580Z,49.60
2022-12-27T08:04:26.490Z,50.10
2022-12-27T08:06:35.982Z,50.70
2022-12-27T08:08:45.397Z,51.10
2022-12-27T08:10:54.330Z,51.60
2022-12-27T08:13:01.103Z,52.20
2022-12-27T08:15:10.284Z,52.50
2022-12-27T08:17:23.457Z,51.70
2022-12-27T08:19:31.356Z,51.70
2022-12-27T08:21:38.228Z,51.60
2022-12-27T08:23:46.023Z,51.00
2022-12-27T08:25:54.522Z,50.90
2022-12-27T08:28:07.357Z,50.10
2022-12-27T08:30:15.047Z,50.60
2022-12-27T08:32:22.947Z,50.80
2022-12-27T08:34:29.609Z,50.60
2022-12-27T08:36:54.520Z,50.80
2022-12-27T08:39:02.111Z,51.70
2022-12-27T08:41:11.239Z,50.60
2022-12-27T08:43:17.998Z,50.30
2022-12-27T08:45:25.034Z,50.30
2022-12-27T08:47:31.812Z,50.40
2022-12-27T08:49:38.877Z,50.00
2022-12-27T08:51:45.655Z,50.90
2022-12-27T08:53:53.626Z,51.10
2022-12-27T08:56:00.627Z,49.50
2022-12-27T08:58:15.985Z,48.90
2022-12-27T09:00:23.335Z,48.90
2022-12-27T09:02:30.462Z,48.90
2022-12-27T09:04:37.393Z,49.30
2022-12-27T09:06:44.522Z,49.70
2022-12-27T09:08:52.430Z,49.80
2022-12-27T09:10:59.396Z,50.20
2022-12-27T09:13:07.967Z,50.20
2022-12-27T09:15:15.264Z,50.60
2022-12-27T09:17:22.031Z,50.90
2022-12-27T09:19:29.167Z,51.30
2022-12-27T09:21:37.506Z,51.40
2022-12-27T09:23:45.149Z,51.90
2022-12-27T09:25:52.438Z,52.60
2022-12-27T09:28:00.193Z,52.90
2022-12-27T09:30:10.383Z,53.00
2022-12-27T09:32:17.561Z,53.10
2022-12-27T09:34:24.436Z,53.30
2022-12-27T09:36:32.663Z,53.60
2022-12-27T09:38:39.923Z,53.70
2022-12-27T09:40:56.377Z,53.70
2022-12-27T09:43:22.273Z,53.70
2022-12-27T09:45:41.159Z,53.90
2022-12-27T09:47:55.245Z,54.00
2022-12-27T09:50:09.594Z,54.20
2022-12-27T09:52:19.083Z,54.40
2022-12-27T09:54:30.005Z,54.10
2022-12-27T09:57:02.094Z,54.00
2022-12-27T09:59:12.881Z,54.30
2022-12-27T10:01:29.341Z,54.50
2022-12-27T10:03:36.769Z,54.30
2022-12-27T10:05:46.683Z,54.40
2022-12-27T10:08:05.318Z,54.60
2022-12-27T10:10:19.803Z,54.90
2022-12-27T10:12:41.903Z,55.00
2022-12-27T10:15:02.090Z,55.00
2022-12-27T10:17:21.146Z,55.10
2022-12-27T10:19:38.822Z,55.30
2022-12-27T10:22:02.028Z,55.40
2022-12-27T10:24:22.272Z,55.00
2022-12-27T10:26:29.961Z,55.00
2022-12-27T10:28:42.060Z,55.50
2022-12-27T10:30:49.185Z,55.50
2022-12-27T10:32:57.855Z,55.80
2022-12-27T10:35:07.339Z,56.20
2022-12-27T10:37:18.423Z,56.70
2022-12-27T10:39:29.795Z,57.00
2022-12-27T10:41:51.258Z,57.30
2022-12-27T10:43:58.968Z,58.40
2022-12-27T10:46:16.069Z,59.70
2022-12-27T10:48:32.223Z,60.50
2022-12-27T10:51:00.177Z,60.50
2022-12-27T10:53:07.565Z,62.10
2022-12-27T10:55:35.761Z,62.80
2022-12-27T10:57:43.480Z,64.90
2022-12-27T11:00:10.480Z,64.90
2022-12-27T11:02:21.586Z,65.40
2022-12-27T11:04:30.868Z,63.30
2022-12-27T11:06:38.015Z,62.20
2022-12-27T11:08:44.787Z,63.10
2022-12-27T11:10:52.021Z,64.60
2022-12-27T11:13:04.270Z,66.20
2022-12-27T11:15:21.230Z,66.30
2022-12-27T11:17:31.278Z,67.10
2022-12-27T11:19:43.683Z,67.50
2022-12-27T11:21:50.609Z,68.30
2022-12-27T11:24:01.227Z,68.40
2022-12-27T11:26:09.836Z,68.90
2022-12-27T11:28:26.850Z,68.40
2022-12-27T11:30:36.794Z,68.80
2022-12-27T11:32:48.636Z,69.00
2022-12-27T11:34:59.656Z,67.90
2022-12-27T11:37:14.123Z,67.40
2022-12-27T11:39:45.366Z,67.30
2022-12-27T11:42:00.319Z,68.80
2022-12-27T11:44:20.248Z,69.70
2022-12-27T11:46:31.277Z,69.90
2022-12-27T11:48:43.374Z,70.60
2022-12-27T11:51:15.380Z,70.30
2022-12-27T11:53:33.008Z,71.40
2022-12-27T11:56:11.986Z,72.90
2022-12-27T11:59:19.122Z,72.80
2022-12-27T12:02:01.492Z,73.10
2022-12-27T12:04:33.286Z,72.50
2022-12-27T12:06:55.829Z,72.80
2022-12-27T12:09:34.305Z,73.00
2022-12-27T12:11:59.807Z,73.10
2022-12-27T12:14:43.339Z,73.70
2022-12-27T12:17:19.194Z,73.10
2022-12-27T12:19:44.247Z,73.80
2022-12-27T12:22:03.307Z,74.30
2022-12-27T12:24:35.832Z,75.10
2022-12-27T12:26:55.826Z,75.00
2022-12-27T12:29:32.534Z,74.90
2022-12-27T12:32:07.232Z,75.10
2022-12-27T12:34:36.921Z,75.60
2022-12-27T12:37:07.655Z,75.50
2022-12-27T12:39:25.639Z,76.20
2022-12-27T12:42:11.080Z,76.40
2022-12-27T12:44:54.192Z,76.70
2022-12-27T12:47:06.955Z,76.50
2022-12-27T12:49:40.349Z,76.30
2022-12-27T12:52:08.933Z,77.10
2022-12-27T12:54:31.989Z,77.50
2022-12-27T12:56:57.500Z,77.70
2022-12-27T12:59:19.376Z,78.10
2022-12-27T13:01:33.169Z,77.80
2022-12-27T13:04:09.654Z,78.40
2022-12-27T13:06:35.041Z,78.00
2022-12-27T13:08:50.008Z,78.00
2022-12-27T13:11:37.837Z,78.50
2022-12-27T13:13:56.909Z,78.80
2022-12-27T13:16:19.162Z,79.20
2022-12-27T13:18:31.390Z,79.80
2022-12-27T13:21:09.847Z,79.70
2022-12-27T13:23:29.726Z,80.50
2022-12-27T13:25:44.555Z,80.50
2022-12-27T13:28:02.469Z,80.30
2022-12-27T13:30:21.686Z,80.20
2022-12-27T13:32:43.118Z,80.20
2022-12-27T13:35:20.196Z,80.30
2022-12-27T13:37:40.471Z,81.00
2022-12-27T13:40:08.693Z,81.40
2022-12-27T13:42:36.460Z,81.20
2022-12-27T13:44:58.234Z,81.00
2022-12-27T13:47:37.317Z,80.80
2022-12-27T13:50:14.658Z,81.50
2022-12-27T13:52:41.597Z,81.70
2022-12-27T13:55:23.410Z,81.90
2022-12-27T13:57:59.506Z,81.50
2022-12-27T14:00:19.997Z,81.50
2022-12-27T14:03:09.884Z,81.70
2022-12-27T14:05:49.621Z,82.70
2022-12-27T14:08:06.374Z,82.50
2022-12-27T14:10:24.720Z,82.50
2022-12-27T14:12:58.704Z,82.40
2022-12-27T14:15:09.512Z,82.70
2022-12-27T14:17:33.324Z,82.70
2022-12-27T14:20:06.225Z,83.30
2022-12-27T14:22:40.623Z,83.50
2022-12-27T14:25:28.406Z,83.50
2022-12-27T14:28:07.947Z,83.50
2022-12-27T14:30:48.277Z,84.40
2022-12-27T14:33:33.325Z,84.50
2022-12-27T14:36:03.915Z,85.30
2022-12-27T14:38:46.720Z,85.60
2022-12-27T14:41:27.082Z,85.20
2022-12-27T14:44:09.185Z,85.00
2022-12-27T14:46:59.260Z,85.00
2022-12-27T14:49:43.363Z,84.70
2022-12-27T14:52:28.076Z,83.50
2022-12-27T14:55:00.349Z,82.70
2022-12-27T14:57:19.610Z,82.70
2022-12-27T14:59:38.363Z,83.10
2022-12-27T15:01:57.360Z,83.40
2022-12-27T15:04:17.610Z,83.60
2022-12-27T15:06:37.696Z,83.40
2022-12-27T15:09:00.387Z,83.10
2022-12-27T15:11:48.478Z,83.40
2022-12-27T15:14:09.812Z,83.60
2022-12-27T15:16:25.214Z,83.80
2022-12-27T15:18:46.535Z,83.90
2022-12-27T15:21:15.986Z,83.30
2022-12-27T15:23:32.486Z,83.20
2022-12-27T15:25:53.644Z,83.20
2022-12-27T15:28:10.246Z,83.10
2022-12-27T15:30:26.286Z,83.00
2022-12-27T15:32:41.968Z,82.70
2022-12-27T15:35:06.352Z,82.40
2022-12-27T15:37:45.438Z,82.30
2022-12-27T15:39:53.173Z,82.40
2022-12-27T15:42:11.825Z,82.30
2022-12-27T15:44:43.021Z,82.10
2022-12-27T15:47:30.096Z,82.00
2022-12-27T15:49:57.391Z,82.40
2022-12-27T15:52:14.202Z,82.90
2022-12-27T15:54:51.879Z,82.60
2022-12-27T15:57:25.447Z,82.60
2022-12-27T15:59:51.125Z,82.70
2022-12-27T16:02:25.395Z,83.10
2022-12-27T16:04:49.815Z,83.30
2022-12-27T16:07:03.892Z,83.50
2022-12-27T16:09:38.394Z,83.80
2022-12-27T16:12:05.386Z,84.20
2022-12-27T16:14:32.087Z,84.30
2022-12-27T16:17:06.696Z,84.20
2022-12-27T16:19:38.499Z,83.80
2022-12-27T16:21:49.450Z,83.70
2022-12-27T16:24:00.511Z,83.40
2022-12-27T16:26:11.921Z,83.30
2022-12-27T16:28:27.737Z,83.10
2022-12-27T16:30:47.993Z,82.60
2022-12-27T16:32:54.660Z,82.40
2022-12-27T16:35:17.667Z,81.60
2022-12-27T16:37:33.343Z,82.00
2022-12-27T16:40:01.160Z,82.00
2022-12-27T16:42:09.826Z,81.70
2022-12-27T16:44:28.105Z,81.10
2022-12-27T16:47:05.413Z,80.60
2022-12-27T16:49:30.610Z,80.00
2022-12-27T16:51:47.110Z,80.10
2022-12-27T16:54:26.292Z,80.00
2022-12-27T16:56:35.576Z,79.80
2022-12-27T16:58:42.756Z,79.90
2022-12-27T17:00:50.997Z,80.10
2022-12-27T17:03:39.509Z,80.30
2022-12-27T17:06:21.731Z,80.70
2022-12-27T17:08:18.982Z,80.90
2022-12-27T17:11:02.860Z,80.60
2022-12-27T17:13:16.532Z,80.80
2022-12-27T17:15:23.925Z,80.50
2022-12-27T17:17:31.059Z,80.50
2022-12-27T17:19:42.998Z,80.60
2022-12-27T17:21:51.035Z,80.80
2022-12-27T17:24:00.364Z,80.70
2022-12-27T17:26:31.418Z,80.70
2022-12-27T17:28:48.334Z,81.20
2022-12-27T17:31:02.749Z,82.00
2022-12-27T17:33:25.242Z,81.80
2022-12-27T17:35:39.012Z,81.60
2022-12-27T17:37:51.108Z,82.30
2022-12-27T17:40:13.097Z,82.70
2022-12-27T17:42:47.969Z,82.50
2022-12-27T17:45:09.588Z,82.90
2022-12-27T17:47:54.339Z,82.20
2022-12-27T17:50:04.349Z,83.50
2022-12-27T17:52:36.523Z,83.60
2022-12-27T17:57:46.430Z,83.90
2022-12-27T17:59:56.852Z,84.20
2022-12-27T18:02:08.545Z,83.70
2022-12-27T18:04:24.564Z,83.60
2022-12-27T18:06:31.693Z,83.70
2022-12-27T18:08:41.201Z,83.90
2022-12-27T18:10:48.517Z,83.90
2022-12-27T18:12:58.214Z,83.90
2022-12-27T18:15:06.683Z,84.00
2022-12-27T18:17:29.256Z,84.20
2022-12-27T18:19:36.451Z,84.80
2022-12-27T18:21:58.531Z,85.10
2022-12-27T18:24:26.595Z,85.10
2022-12-27T18:26:39.767Z,85.20
2022-12-27T18:28:49.020Z,85.00
2022-12-27T18:31:02.580Z,85.20
2022-12-27T18:33:11.395Z,85.20
2022-12-27T18:35:24.475Z,85.30
2022-12-27T18:37:35.025Z,85.40
2022-12-27T18:39:45.793Z,85.50
2022-12-27T18:41:55.338Z,85.30
2022-12-27T18:44:03.996Z,85.50
2022-12-27T18:46:11.362Z,85.50
2022-12-27T18:48:22.349Z,85.10
2022-12-27T18:50:31.325Z,85.00
2022-12-27T18:52:42.507Z,84.80
2022-12-27T18:54:51.319Z,84.90
2022-12-27T18:56:58.867Z,85.00
2022-12-27T18:59:08.961Z,84.90
2022-12-27T19:01:40.589Z,84.80
2022-12-27T19:04:04.641Z,84.50
2022-12-27T19:06:14.438Z,84.20
2022-12-27T19:08:25.405Z,84.70
2022-12-27T19:10:34.847Z,84.40
2022-12-27T19:12:43.403Z,84.30
2022-12-27T19:14:50.535Z,84.50
2022-12-27T19:17:04.123Z,84.80
2022-12-27T19:19:20.871Z,83.70
2022-12-27T19:21:35.068Z,83.40
2022-12-27T19:23:49.985Z,83.80
2022-12-27T19:26:07.401Z,84.20
2022-12-27T19:28:30.304Z,84.30
2022-12-27T19:30:44.490Z,84.70
2022-12-27T19:32:51.222Z,85.40
2022-12-27T19:35:01.412Z,85.60
2022-12-27T19:37:08.460Z,85.40
2022-12-27T19:39:25.464Z,85.40
2022-12-27T19:41:34.262Z,86.10
2022-12-27T19:43:43.306Z,85.90
2022-12-27T19:45:50.649Z,85.90
2022-12-27T19:47:59.616Z,85.80
2022-12-27T19:50:06.898Z,86.20
2022-12-27T19:52:18.946Z,86.70
2022-12-27T19:54:27.559Z,86.90
2022-12-27T19:56:37.204Z,87.30
2022-12-27T19:58:43.976Z,87.90
2022-12-27T20:00:50.987Z,88.30
2022-12-27T20:02:57.986Z,88.60
2022-12-27T20:05:05.054Z,88.80
2022-12-27T20:07:23.356Z,88.70
2022-12-27T20:09:30.176Z,88.60
2022-12-27T20:11:39.093Z,88.50
2022-12-27T20:13:45.919Z,88.70
2022-12-27T20:15:53.405Z,88.70
2022-12-27T20:18:00.243Z,88.50
2022-12-27T20:20:08.073Z,88.00
2022-12-27T20:22:15.315Z,87.80
2022-12-27T20:24:22.235Z,87.70
2022-12-27T20:26:30.388Z,87.90
2022-12-27T20:28:39.267Z,87.80
2022-12-27T20:30:47.775Z,87.90
2022-12-27T20:32:55.210Z,87.50
2022-12-27T20:35:01.932Z,86.90
2022-12-27T20:37:08.907Z,86.40
2022-12-27T20:39:15.679Z,86.40
2022-12-27T20:41:25.266Z,86.70
2022-12-27T20:43:32.297Z,86.70
2022-12-27T20:45:41.198Z,87.40
2022-12-27T20:47:48.043Z,87.50
2022-12-27T20:49:55.168Z,87.30
2022-12-27T20:52:02.097Z,87.10
2022-12-27T20:54:09.328Z,87.00
2022-12-27T20:56:16.821Z,86.30
2022-12-27T20:58:23.847Z,86.10
2022-12-27T21:00:31.129Z,86.20
2022-12-27T21:02:41.588Z,85.80
2022-12-27T21:04:48.464Z,85.60
2022-12-27T21:06:55.806Z,85.50
2022-12-27T21:09:02.678Z,85.50
2022-12-27T21:11:14.318Z,85.30
2022-12-27T21:13:21.642Z,85.30
2022-12-27T21:15:31.117Z,85.70
2022-12-27T21:17:39.848Z,85.40
2022-12-27T21:19:47.281Z,85.20
2022-12-27T21:21:54.261Z,85.50
2022-12-27T21:24:39.889Z,85.60
2022-12-27T21:26:47.844Z,85.80
2022-12-27T21:28:57.176Z,85.80
2022-12-27T21:31:04.843Z,86.00
2022-12-27T21:33:13.531Z,86.10
2022-12-27T21:35:20.867Z,85.90
2022-12-27T21:37:27.819Z,85.90
2022-12-27T21:39:35.741Z,85.80
2022-12-27T21:41:44.116Z,85.50
2022-12-27T21:43:52.261Z,85.70
2022-12-27T21:45:59.320Z,85.90
2022-12-27T21:48:06.827Z,85.90
2022-12-27T21:50:15.696Z,85.80
2022-12-27T21:52:23.079Z,85.60
2022-12-27T21:54:30.006Z,85.40
2022-12-27T21:56:37.754Z,85.70
2022-12-27T21:58:45.357Z,86.10
2022-12-27T22:00:57.661Z,85.50
2022-12-27T22:03:05.013Z,85.70
2022-12-27T22:05:14.465Z,86.00
2022-12-27T22:07:21.390Z,86.20
2022-12-27T22:09:28.522Z,86.50
2022-12-27T22:11:36.060Z,86.60
2022-12-27T22:13:43.497Z,86.80
2022-12-27T22:15:58.854Z,86.30
2022-12-27T22:18:06.214Z,86.80
2022-12-27T22:20:15.848Z,87.20
2022-12-27T22:22:23.181Z,86.70
2022-12-27T22:24:30.411Z,87.00
2022-12-27T22:26:39.656Z,87.50
2022-12-27T22:28:47.694Z,87.90
2022-12-27T22:30:54.957Z,88.50
2022-12-27T22:33:01.905Z,88.90
2022-12-27T22:35:09.478Z,89.00
2022-12-27T22:37:18.113Z,88.90
2022-12-27T22:39:25.447Z,88.40
2022-12-27T22:41:33.755Z,88.10
2022-12-27T22:43:42.217Z,88.10
2022-12-27T22:45:53.612Z,88.70
2022-12-27T22:48:00.379Z,89.10
2022-12-27T22:50:07.446Z,89.60
2022-12-27T22:52:14.833Z,89.20
2022-12-27T22:55:04.100Z,89.00
2022-12-27T22:56:50.550Z,88.80
2022-12-27T22:58:58.736Z,88.50
2022-12-27T23:01:05.626Z,88.60
2022-12-27T23:03:12.863Z,88.80
2022-12-27T23:05:19.947Z,88.80
2022-12-27T23:08:06.237Z,89.00
2022-12-27T23:09:55.908Z,89.20
2022-12-27T23:12:03.244Z,89.30
2022-12-27T23:14:13.821Z,89.10
2022-12-27T23:16:20.963Z,89.40
2022-12-27T23:18:27.921Z,89.60
2022-12-27T23:20:37.959Z,89.80
2022-12-27T23:23:04.854Z,89.80
2022-12-27T23:25:14.138Z,89.50
2022-12-27T23:27:21.118Z,89.50
2022-12-27T23:29:28.193Z,89.50
2022-12-27T23:31:35.698Z,89.60
2022-12-27T23:34:02.220Z,89.60
2022-12-27T23:36:10.426Z,89.50
2022-12-27T23:38:17.858Z,89.80
2022-12-27T23:40:26.576Z,90.00
2022-12-27T23:42:33.502Z,90.00
2022-12-27T23:44:40.431Z,89.90
2022-12-27T23:46:47.382Z,89.80
2022-12-27T23:48:54.430Z,89.60
2022-12-27T23:51:01.408Z,90.00
2022-12-27T23:53:08.443Z,90.20
2022-12-27T23:55:15.768Z,90.20
2022-12-27T23:57:25.112Z,90.30
2022-12-27T23:59:31.925Z,90.40
